sensor_id;sensor_type;location;lat;lon;timestamp;P1;durP1;ratioP1;P2;durP2;ratioP2
46463;SDS011;32161;48.148;-1.554;2024-01-10T00:01:26;30.13;;;17.77;;
46463;SDS011;32161;48.148;-1.554;2024-01-10T00:03:54;32.05;;;20.40;;
46463;SDS011;32161;48.148;-1.554;2024-01-10T00:06:22;36.95;;;19.60;;
46463;SDS011;32161;48.148;-1.554;2024-01-10T00:08:49;33.92;;;18.58;;
46463;SDS011;32161;48.148;-1.554;2024-01-10T00:11:18;37.85;;;20.35;;
46463;SDS011;32161;48.148;-1.554;2024-01-10T00:13:47;36.03;;;19.48;;
46463;SDS011;32161;48.148;-1.554;2024-01-10T00:16:14;39.38;;;19.88;;
46463;SDS011;32161;48.148;-1.554;2024-01-10T00:18:42;40.80;;;21.70;;
46463;SDS011;32161;48.148;-1.554;2024-01-10T00:21:10;36.38;;;19.27;;
46463;SDS011;32161;48.148;-1.554;2024-01-10T00:23:37;36.85;;;18.70;;
46463;SDS011;32161;48.148;-1.554;2024-01-10T00:26:05;36.75;;;19.55;;
46463;SDS011;32161;48.148;-1.554;2024-01-10T00:28:34;36.20;;;20.00;;
46463;SDS011;32161;48.148;-1.554;2024-01-10T00:31:02;40.67;;;20.17;;
46463;SDS011;32161;48.148;-1.554;2024-01-10T00:33:29;41.08;;;20.38;;
46463;SDS011;32161;48.148;-1.554;2024-01-10T00:35:57;36.60;;;20.33;;
46463;SDS011;32161;48.148;-1.554;2024-01-10T00:38:25;40.58;;;20.42;;
46463;SDS011;32161;48.148;-1.554;2024-01-10T00:40:52;35.20;;;19.58;;
46463;SDS011;32161;48.148;-1.554;2024-01-10T00:43:21;37.47;;;20.40;;
46463;SDS011;32161;48.148;-1.554;2024-01-10T00:45:50;40.42;;;20.17;;
46463;SDS011;32161;48.148;-1.554;2024-01-10T00:48:17;38.55;;;20.75;;
46463;SDS011;32161;48.148;-1.554;2024-01-10T00:50:45;34.30;;;20.35;;
46463;SDS011;32161;48.148;-1.554;2024-01-10T00:53:13;36.72;;;20.08;;
46463;SDS011;32161;48.148;-1.554;2024-01-10T00:55:40;35.63;;;19.55;;
46463;SDS011;32161;48.148;-1.554;2024-01-10T00:58:08;39.58;;;20.15;;
46463;SDS011;32161;48.148;-1.554;2024-01-10T01:00:36;32.22;;;19.90;;
46463;SDS011;32161;48.148;-1.554;2024-01-10T01:03:05;36.38;;;19.52;;
46463;SDS011;32161;48.148;-1.554;2024-01-10T01:05:33;37.47;;;20.42;;
46463;SDS011;32161;48.148;-1.554;2024-01-10T01:08:01;37.83;;;20.02;;
46463;SDS011;32161;48.148;-1.554;2024-01-10T01:10:29;40.63;;;20.58;;
46463;SDS011;32161;48.148;-1.554;2024-01-10T01:12:56;38.83;;;20.20;;
46463;SDS011;32161;48.148;-1.554;2024-01-10T01:15:24;39.72;;;21.90;;
46463;SDS011;32161;48.148;-1.554;2024-01-10T01:17:51;39.00;;;20.15;;
46463;SDS011;32161;48.148;-1.554;2024-01-10T01:20:20;44.60;;;20.23;;
46463;SDS011;32161;48.148;-1.554;2024-01-10T01:22:48;41.38;;;20.25;;
46463;SDS011;32161;48.148;-1.554;2024-01-10T01:25:16;46.22;;;22.30;;
46463;SDS011;32161;48.148;-1.554;2024-01-10T01:27:43;45.08;;;21.23;;
46463;SDS011;32161;48.148;-1.554;2024-01-10T01:30:11;42.50;;;21.23;;
46463;SDS011;32161;48.148;-1.554;2024-01-10T01:32:39;38.60;;;21.00;;
46463;SDS011;32161;48.148;-1.554;2024-01-10T01:35:07;36.15;;;19.67;;
46463;SDS011;32161;48.148;-1.554;2024-01-10T01:37:36;38.08;;;20.42;;
46463;SDS011;32161;48.148;-1.554;2024-01-10T01:40:04;36.20;;;20.30;;
46463;SDS011;32161;48.148;-1.554;2024-01-10T01:42:34;41.28;;;21.45;;
46463;SDS011;32161;48.148;-1.554;2024-01-10T01:45:01;41.58;;;21.88;;
46463;SDS011;32161;48.148;-1.554;2024-01-10T01:47:29;40.67;;;21.90;;
46463;SDS011;32161;48.148;-1.554;2024-01-10T01:49:57;47.03;;;22.50;;
46463;SDS011;32161;48.148;-1.554;2024-01-10T01:52:25;36.97;;;19.50;;
46463;SDS011;32161;48.148;-1.554;2024-01-10T01:54:54;47.33;;;23.05;;
46463;SDS011;32161;48.148;-1.554;2024-01-10T01:57:21;38.50;;;21.13;;
46463;SDS011;32161;48.148;-1.554;2024-01-10T01:59:49;43.70;;;22.23;;
46463;SDS011;32161;48.148;-1.554;2024-01-10T02:02:17;53.47;;;23.35;;
46463;SDS011;32161;48.148;-1.554;2024-01-10T02:04:46;47.63;;;23.30;;
46463;SDS011;32161;48.148;-1.554;2024-01-10T02:07:14;46.00;;;23.48;;
46463;SDS011;32161;48.148;-1.554;2024-01-10T02:09:41;44.90;;;22.75;;
46463;SDS011;32161;48.148;-1.554;2024-01-10T02:12:10;39.67;;;22.80;;
46463;SDS011;32161;48.148;-1.554;2024-01-10T02:14:38;45.25;;;23.13;;
46463;SDS011;32161;48.148;-1.554;2024-01-10T02:17:06;45.05;;;23.92;;
46463;SDS011;32161;48.148;-1.554;2024-01-10T02:19:33;47.30;;;23.77;;
46463;SDS011;32161;48.148;-1.554;2024-01-10T02:22:01;43.70;;;23.13;;
46463;SDS011;32161;48.148;-1.554;2024-01-10T02:24:29;42.20;;;22.50;;
46463;SDS011;32161;48.148;-1.554;2024-01-10T02:26:57;44.38;;;23.08;;
46463;SDS011;32161;48.148;-1.554;2024-01-10T02:29:25;42.83;;;23.17;;
46463;SDS011;32161;48.148;-1.554;2024-01-10T02:31:53;42.97;;;23.52;;
46463;SDS011;32161;48.148;-1.554;2024-01-10T02:34:20;46.72;;;23.77;;
46463;SDS011;32161;48.148;-1.554;2024-01-10T02:36:48;48.50;;;23.05;;
46463;SDS011;32161;48.148;-1.554;2024-01-10T02:39:16;43.30;;;23.25;;
46463;SDS011;32161;48.148;-1.554;2024-01-10T02:41:43;45.05;;;22.00;;
46463;SDS011;32161;48.148;-1.554;2024-01-10T02:44:12;41.60;;;22.40;;
46463;SDS011;32161;48.148;-1.554;2024-01-10T02:46:41;40.92;;;22.30;;
46463;SDS011;32161;48.148;-1.554;2024-01-10T02:49:08;39.50;;;21.25;;
46463;SDS011;32161;48.148;-1.554;2024-01-10T02:51:36;46.58;;;23.10;;
46463;SDS011;32161;48.148;-1.554;2024-01-10T02:54:04;41.45;;;23.40;;
46463;SDS011;32161;48.148;-1.554;2024-01-10T02:56:31;42.15;;;22.15;;
46463;SDS011;32161;48.148;-1.554;2024-01-10T02:58:59;43.25;;;21.83;;
46463;SDS011;32161;48.148;-1.554;2024-01-10T03:01:28;41.47;;;23.63;;
46463;SDS011;32161;48.148;-1.554;2024-01-10T03:03:55;38.30;;;21.98;;
46463;SDS011;32161;48.148;-1.554;2024-01-10T03:06:23;41.55;;;22.85;;
46463;SDS011;32161;48.148;-1.554;2024-01-10T03:08:51;38.85;;;20.08;;
46463;SDS011;32161;48.148;-1.554;2024-01-10T03:11:18;41.58;;;22.55;;
46463;SDS011;32161;48.148;-1.554;2024-01-10T03:13:46;41.30;;;21.38;;
46463;SDS011;32161;48.148;-1.554;2024-01-10T03:16:14;41.95;;;22.75;;
46463;SDS011;32161;48.148;-1.554;2024-01-10T03:18:44;40.20;;;21.08;;
46463;SDS011;32161;48.148;-1.554;2024-01-10T03:21:11;34.15;;;19.58;;
46463;SDS011;32161;48.148;-1.554;2024-01-10T03:23:39;36.85;;;21.98;;
46463;SDS011;32161;48.148;-1.554;2024-01-10T03:26:06;36.40;;;20.52;;
46463;SDS011;32161;48.148;-1.554;2024-01-10T03:28:35;39.35;;;21.17;;
46463;SDS011;32161;48.148;-1.554;2024-01-10T03:31:03;40.03;;;21.38;;
46463;SDS011;32161;48.148;-1.554;2024-01-10T03:33:31;36.55;;;20.38;;
46463;SDS011;32161;48.148;-1.554;2024-01-10T03:36:00;35.60;;;19.13;;
46463;SDS011;32161;48.148;-1.554;2024-01-10T03:38:28;36.67;;;20.30;;
46463;SDS011;32161;48.148;-1.554;2024-01-10T03:40:54;32.88;;;19.40;;
46463;SDS011;32161;48.148;-1.554;2024-01-10T03:43:22;34.67;;;18.95;;
46463;SDS011;32161;48.148;-1.554;2024-01-10T03:45:50;32.92;;;20.33;;
46463;SDS011;32161;48.148;-1.554;2024-01-10T03:48:18;35.72;;;20.25;;
46463;SDS011;32161;48.148;-1.554;2024-01-10T03:50:46;35.47;;;19.55;;
46463;SDS011;32161;48.148;-1.554;2024-01-10T03:53:15;35.30;;;18.98;;
46463;SDS011;32161;48.148;-1.554;2024-01-10T03:55:42;29.40;;;18.75;;
46463;SDS011;32161;48.148;-1.554;2024-01-10T03:58:10;33.13;;;18.55;;
46463;SDS011;32161;48.148;-1.554;2024-01-10T04:00:37;31.13;;;19.08;;
46463;SDS011;32161;48.148;-1.554;2024-01-10T04:03:05;33.20;;;18.77;;
46463;SDS011;32161;48.148;-1.554;2024-01-10T04:05:33;30.95;;;17.58;;
46463;SDS011;32161;48.148;-1.554;2024-01-10T04:08:00;29.63;;;17.60;;
46463;SDS011;32161;48.148;-1.554;2024-01-10T04:10:30;31.58;;;18.77;;
46463;SDS011;32161;48.148;-1.554;2024-01-10T04:12:58;33.75;;;18.67;;
46463;SDS011;32161;48.148;-1.554;2024-01-10T04:15:25;34.58;;;18.52;;
46463;SDS011;32161;48.148;-1.554;2024-01-10T04:17:52;32.25;;;18.88;;
46463;SDS011;32161;48.148;-1.554;2024-01-10T04:20:19;30.80;;;18.60;;
46463;SDS011;32161;48.148;-1.554;2024-01-10T04:22:47;28.00;;;17.02;;
46463;SDS011;32161;48.148;-1.554;2024-01-10T04:25:14;31.95;;;18.27;;
46463;SDS011;32161;48.148;-1.554;2024-01-10T04:27:43;29.30;;;18.27;;
46463;SDS011;32161;48.148;-1.554;2024-01-10T04:30:11;31.88;;;18.27;;
46463;SDS011;32161;48.148;-1.554;2024-01-10T04:32:39;30.10;;;18.10;;
46463;SDS011;32161;48.148;-1.554;2024-01-10T04:35:07;35.47;;;18.10;;
46463;SDS011;32161;48.148;-1.554;2024-01-10T04:37:35;36.33;;;18.75;;
46463;SDS011;32161;48.148;-1.554;2024-01-10T04:40:02;31.77;;;17.70;;
46463;SDS011;32161;48.148;-1.554;2024-01-10T04:42:31;30.50;;;17.40;;
46463;SDS011;32161;48.148;-1.554;2024-01-10T04:45:00;31.23;;;18.85;;
46463;SDS011;32161;48.148;-1.554;2024-01-10T04:47:28;29.60;;;18.63;;
46463;SDS011;32161;48.148;-1.554;2024-01-10T04:49:55;31.20;;;18.08;;
46463;SDS011;32161;48.148;-1.554;2024-01-10T04:52:23;33.88;;;18.40;;
46463;SDS011;32161;48.148;-1.554;2024-01-10T04:54:50;37.30;;;19.83;;
46463;SDS011;32161;48.148;-1.554;2024-01-10T04:57:18;32.10;;;18.23;;
46463;SDS011;32161;48.148;-1.554;2024-01-10T04:59:46;30.58;;;18.15;;
46463;SDS011;32161;48.148;-1.554;2024-01-10T05:02:15;34.55;;;20.92;;
46463;SDS011;32161;48.148;-1.554;2024-01-10T05:04:43;31.02;;;18.20;;
46463;SDS011;32161;48.148;-1.554;2024-01-10T05:07:10;30.17;;;17.67;;
46463;SDS011;32161;48.148;-1.554;2024-01-10T05:09:38;30.98;;;19.58;;
46463;SDS011;32161;48.148;-1.554;2024-01-10T05:12:05;31.17;;;19.00;;
46463;SDS011;32161;48.148;-1.554;2024-01-10T05:14:33;32.53;;;18.02;;
46463;SDS011;32161;48.148;-1.554;2024-01-10T05:17:01;31.75;;;17.83;;
46463;SDS011;32161;48.148;-1.554;2024-01-10T05:19:30;31.35;;;17.63;;
46463;SDS011;32161;48.148;-1.554;2024-01-10T05:21:57;31.73;;;18.25;;
46463;SDS011;32161;48.148;-1.554;2024-01-10T05:24:25;31.55;;;18.90;;
46463;SDS011;32161;48.148;-1.554;2024-01-10T05:26:52;31.45;;;18.05;;
46463;SDS011;32161;48.148;-1.554;2024-01-10T05:29:20;34.35;;;19.20;;
46463;SDS011;32161;48.148;-1.554;2024-01-10T05:31:49;30.88;;;18.60;;
46463;SDS011;32161;48.148;-1.554;2024-01-10T05:34:16;32.08;;;18.88;;
46463;SDS011;32161;48.148;-1.554;2024-01-10T05:36:45;33.92;;;18.02;;
46463;SDS011;32161;48.148;-1.554;2024-01-10T05:39:14;33.97;;;19.20;;
46463;SDS011;32161;48.148;-1.554;2024-01-10T05:41:43;33.45;;;18.02;;
46463;SDS011;32161;48.148;-1.554;2024-01-10T05:44:11;32.75;;;18.88;;
46463;SDS011;32161;48.148;-1.554;2024-01-10T05:46:40;31.08;;;18.52;;
46463;SDS011;32161;48.148;-1.554;2024-01-10T05:49:08;31.70;;;18.88;;
46463;SDS011;32161;48.148;-1.554;2024-01-10T05:51:35;31.60;;;18.35;;
46463;SDS011;32161;48.148;-1.554;2024-01-10T05:54:05;31.40;;;17.88;;
46463;SDS011;32161;48.148;-1.554;2024-01-10T05:56:33;32.25;;;18.52;;
46463;SDS011;32161;48.148;-1.554;2024-01-10T05:59:00;31.85;;;17.77;;
46463;SDS011;32161;48.148;-1.554;2024-01-10T06:01:28;29.60;;;17.73;;
46463;SDS011;32161;48.148;-1.554;2024-01-10T06:03:55;34.28;;;18.92;;
46463;SDS011;32161;48.148;-1.554;2024-01-10T06:06:23;31.80;;;19.88;;
46463;SDS011;32161;48.148;-1.554;2024-01-10T06:08:50;32.78;;;19.33;;
46463;SDS011;32161;48.148;-1.554;2024-01-10T06:11:19;31.75;;;19.42;;
46463;SDS011;32161;48.148;-1.554;2024-01-10T06:13:47;34.97;;;20.25;;
46463;SDS011;32161;48.148;-1.554;2024-01-10T06:16:14;30.95;;;18.67;;
46463;SDS011;32161;48.148;-1.554;2024-01-10T06:18:43;31.55;;;18.65;;
46463;SDS011;32161;48.148;-1.554;2024-01-10T06:21:10;28.40;;;17.65;;
46463;SDS011;32161;48.148;-1.554;2024-01-10T06:23:38;32.25;;;19.45;;
46463;SDS011;32161;48.148;-1.554;2024-01-10T06:26:05;30.60;;;18.50;;
46463;SDS011;32161;48.148;-1.554;2024-01-10T06:28:34;32.63;;;19.50;;
46463;SDS011;32161;48.148;-1.554;2024-01-10T06:31:02;31.20;;;18.63;;
46463;SDS011;32161;48.148;-1.554;2024-01-10T06:33:30;34.40;;;19.17;;
46463;SDS011;32161;48.148;-1.554;2024-01-10T06:35:57;35.75;;;18.92;;
46463;SDS011;32161;48.148;-1.554;2024-01-10T06:38:25;33.78;;;17.85;;
46463;SDS011;32161;48.148;-1.554;2024-01-10T06:40:52;30.95;;;18.30;;
46463;SDS011;32161;48.148;-1.554;2024-01-10T06:43:20;31.08;;;18.02;;
46463;SDS011;32161;48.148;-1.554;2024-01-10T06:45:50;34.90;;;19.42;;
46463;SDS011;32161;48.148;-1.554;2024-01-10T06:48:18;30.33;;;18.10;;
46463;SDS011;32161;48.148;-1.554;2024-01-10T06:50:45;34.75;;;20.17;;
46463;SDS011;32161;48.148;-1.554;2024-01-10T06:53:13;36.47;;;20.38;;
46463;SDS011;32161;48.148;-1.554;2024-01-10T06:55:40;30.63;;;18.52;;
46463;SDS011;32161;48.148;-1.554;2024-01-10T06:58:08;31.33;;;18.80;;
46463;SDS011;32161;48.148;-1.554;2024-01-10T07:00:36;35.72;;;19.30;;
46463;SDS011;32161;48.148;-1.554;2024-01-10T07:03:05;33.00;;;20.83;;
46463;SDS011;32161;48.148;-1.554;2024-01-10T07:05:33;32.30;;;18.73;;
46463;SDS011;32161;48.148;-1.554;2024-01-10T07:08:01;31.58;;;19.10;;
46463;SDS011;32161;48.148;-1.554;2024-01-10T07:10:30;32.45;;;19.52;;
46463;SDS011;32161;48.148;-1.554;2024-01-10T07:12:57;35.97;;;18.85;;
46463;SDS011;32161;48.148;-1.554;2024-01-10T07:15:25;32.97;;;18.52;;
46463;SDS011;32161;48.148;-1.554;2024-01-10T07:17:52;32.75;;;18.88;;
46463;SDS011;32161;48.148;-1.554;2024-01-10T07:20:21;33.97;;;19.23;;
46463;SDS011;32161;48.148;-1.554;2024-01-10T07:22:49;34.72;;;20.65;;
46463;SDS011;32161;48.148;-1.554;2024-01-10T07:25:17;31.95;;;19.98;;
46463;SDS011;32161;48.148;-1.554;2024-01-10T07:27:49;34.40;;;21.60;;
46463;SDS011;32161;48.148;-1.554;2024-01-10T07:30:17;35.25;;;19.58;;
46463;SDS011;32161;48.148;-1.554;2024-01-10T07:32:45;35.67;;;18.15;;
46463;SDS011;32161;48.148;-1.554;2024-01-10T07:35:13;35.03;;;19.88;;
46463;SDS011;32161;48.148;-1.554;2024-01-10T07:37:42;29.92;;;18.83;;
46463;SDS011;32161;48.148;-1.554;2024-01-10T07:40:09;36.47;;;19.55;;
46463;SDS011;32161;48.148;-1.554;2024-01-10T07:42:38;35.80;;;17.95;;
46463;SDS011;32161;48.148;-1.554;2024-01-10T07:45:06;35.95;;;20.00;;
46463;SDS011;32161;48.148;-1.554;2024-01-10T07:47:34;32.92;;;19.42;;
46463;SDS011;32161;48.148;-1.554;2024-01-10T07:50:03;33.22;;;20.58;;
46463;SDS011;32161;48.148;-1.554;2024-01-10T07:52:32;36.63;;;21.05;;
46463;SDS011;32161;48.148;-1.554;2024-01-10T07:55:01;33.05;;;19.65;;
46463;SDS011;32161;48.148;-1.554;2024-01-10T07:57:31;31.05;;;18.02;;
46463;SDS011;32161;48.148;-1.554;2024-01-10T08:00:00;32.03;;;19.85;;
46463;SDS011;32161;48.148;-1.554;2024-01-10T08:02:29;33.30;;;19.98;;
46463;SDS011;32161;48.148;-1.554;2024-01-10T08:04:59;32.50;;;19.02;;
46463;SDS011;32161;48.148;-1.554;2024-01-10T08:07:30;32.97;;;20.00;;
46463;SDS011;32161;48.148;-1.554;2024-01-10T08:09:58;38.05;;;20.17;;
46463;SDS011;32161;48.148;-1.554;2024-01-10T08:12:27;38.05;;;20.65;;
46463;SDS011;32161;48.148;-1.554;2024-01-10T08:14:54;36.35;;;20.70;;
46463;SDS011;32161;48.148;-1.554;2024-01-10T08:17:22;36.95;;;20.02;;
46463;SDS011;32161;48.148;-1.554;2024-01-10T08:19:50;40.75;;;21.10;;
46463;SDS011;32161;48.148;-1.554;2024-01-10T08:22:18;35.60;;;20.98;;
46463;SDS011;32161;48.148;-1.554;2024-01-10T08:24:46;37.15;;;20.73;;
46463;SDS011;32161;48.148;-1.554;2024-01-10T08:27:14;34.78;;;19.50;;
46463;SDS011;32161;48.148;-1.554;2024-01-10T08:29:43;31.83;;;18.77;;
46463;SDS011;32161;48.148;-1.554;2024-01-10T08:32:11;37.08;;;20.98;;
46463;SDS011;32161;48.148;-1.554;2024-01-10T08:34:40;38.47;;;21.17;;
46463;SDS011;32161;48.148;-1.554;2024-01-10T08:37:10;38.40;;;21.67;;
46463;SDS011;32161;48.148;-1.554;2024-01-10T08:39:37;36.83;;;20.73;;
46463;SDS011;32161;48.148;-1.554;2024-01-10T08:42:05;38.03;;;19.73;;
46463;SDS011;32161;48.148;-1.554;2024-01-10T08:44:34;37.63;;;22.70;;
46463;SDS011;32161;48.148;-1.554;2024-01-10T08:47:03;38.55;;;21.38;;
46463;SDS011;32161;48.148;-1.554;2024-01-10T08:49:31;40.28;;;21.08;;
46463;SDS011;32161;48.148;-1.554;2024-01-10T08:51:58;34.80;;;20.25;;
46463;SDS011;32161;48.148;-1.554;2024-01-10T08:54:26;38.15;;;21.45;;
46463;SDS011;32161;48.148;-1.554;2024-01-10T08:56:54;39.60;;;20.80;;
46463;SDS011;32161;48.148;-1.554;2024-01-10T08:59:21;35.17;;;20.38;;
46463;SDS011;32161;48.148;-1.554;2024-01-10T09:01:50;41.90;;;20.85;;
46463;SDS011;32161;48.148;-1.554;2024-01-10T09:04:19;39.95;;;21.20;;
46463;SDS011;32161;48.148;-1.554;2024-01-10T09:06:47;37.13;;;20.50;;
46463;SDS011;32161;48.148;-1.554;2024-01-10T09:09:14;39.28;;;21.30;;
46463;SDS011;32161;48.148;-1.554;2024-01-10T09:11:45;39.55;;;21.00;;
46463;SDS011;32161;48.148;-1.554;2024-01-10T09:14:14;37.85;;;20.83;;
46463;SDS011;32161;48.148;-1.554;2024-01-10T09:16:41;36.90;;;20.60;;
46463;SDS011;32161;48.148;-1.554;2024-01-10T09:19:09;39.00;;;21.25;;
46463;SDS011;32161;48.148;-1.554;2024-01-10T09:21:38;36.53;;;21.63;;
46463;SDS011;32161;48.148;-1.554;2024-01-10T09:24:06;38.60;;;20.67;;
46463;SDS011;32161;48.148;-1.554;2024-01-10T09:26:36;38.13;;;21.55;;
46463;SDS011;32161;48.148;-1.554;2024-01-10T09:29:04;40.28;;;22.27;;
46463;SDS011;32161;48.148;-1.554;2024-01-10T09:31:31;34.53;;;20.92;;
46463;SDS011;32161;48.148;-1.554;2024-01-10T09:33:59;38.70;;;20.42;;
46463;SDS011;32161;48.148;-1.554;2024-01-10T09:36:27;39.05;;;21.52;;
46463;SDS011;32161;48.148;-1.554;2024-01-10T09:38:56;40.88;;;22.58;;
46463;SDS011;32161;48.148;-1.554;2024-01-10T09:41:24;34.60;;;19.98;;
46463;SDS011;32161;48.148;-1.554;2024-01-10T09:43:54;47.10;;;20.63;;
46463;SDS011;32161;48.148;-1.554;2024-01-10T09:46:22;40.97;;;23.08;;
46463;SDS011;32161;48.148;-1.554;2024-01-10T09:48:49;35.50;;;19.73;;
46463;SDS011;32161;48.148;-1.554;2024-01-10T09:51:17;40.35;;;22.42;;
46463;SDS011;32161;48.148;-1.554;2024-01-10T09:53:45;36.92;;;21.92;;
46463;SDS011;32161;48.148;-1.554;2024-01-10T09:56:19;40.90;;;21.35;;
46463;SDS011;32161;48.148;-1.554;2024-01-10T09:58:46;38.72;;;22.08;;
46463;SDS011;32161;48.148;-1.554;2024-01-10T10:01:16;36.38;;;20.60;;
46463;SDS011;32161;48.148;-1.554;2024-01-10T10:03:45;42.15;;;23.33;;
46463;SDS011;32161;48.148;-1.554;2024-01-10T10:06:15;39.88;;;22.08;;
46463;SDS011;32161;48.148;-1.554;2024-01-10T10:08:42;41.63;;;22.38;;
46463;SDS011;32161;48.148;-1.554;2024-01-10T10:11:11;42.53;;;22.48;;
46463;SDS011;32161;48.148;-1.554;2024-01-10T10:13:41;43.22;;;23.17;;
46463;SDS011;32161;48.148;-1.554;2024-01-10T10:16:08;40.72;;;23.20;;
46463;SDS011;32161;48.148;-1.554;2024-01-10T10:18:38;36.63;;;20.90;;
46463;SDS011;32161;48.148;-1.554;2024-01-10T10:21:08;39.40;;;22.02;;
46463;SDS011;32161;48.148;-1.554;2024-01-10T10:23:37;41.00;;;22.45;;
46463;SDS011;32161;48.148;-1.554;2024-01-10T10:26:10;42.05;;;22.23;;
46463;SDS011;32161;48.148;-1.554;2024-01-10T10:28:46;39.20;;;22.35;;
46463;SDS011;32161;48.148;-1.554;2024-01-10T10:31:14;43.55;;;22.85;;
46463;SDS011;32161;48.148;-1.554;2024-01-10T10:33:43;39.88;;;22.17;;
46463;SDS011;32161;48.148;-1.554;2024-01-10T10:36:13;41.53;;;22.58;;
46463;SDS011;32161;48.148;-1.554;2024-01-10T10:38:41;43.08;;;23.50;;
46463;SDS011;32161;48.148;-1.554;2024-01-10T10:41:08;40.22;;;23.52;;
46463;SDS011;32161;48.148;-1.554;2024-01-10T10:43:37;41.35;;;22.92;;
46463;SDS011;32161;48.148;-1.554;2024-01-10T10:46:07;45.00;;;23.33;;
46463;SDS011;32161;48.148;-1.554;2024-01-10T10:48:37;39.03;;;22.40;;
46463;SDS011;32161;48.148;-1.554;2024-01-10T10:51:05;44.85;;;23.23;;
46463;SDS011;32161;48.148;-1.554;2024-01-10T10:53:35;43.30;;;23.60;;
46463;SDS011;32161;48.148;-1.554;2024-01-10T10:56:06;41.30;;;22.88;;
46463;SDS011;32161;48.148;-1.554;2024-01-10T10:58:35;41.20;;;22.95;;
46463;SDS011;32161;48.148;-1.554;2024-01-10T11:01:04;44.47;;;23.85;;
46463;SDS011;32161;48.148;-1.554;2024-01-10T11:03:35;46.47;;;23.60;;
46463;SDS011;32161;48.148;-1.554;2024-01-10T11:06:05;42.70;;;23.40;;
46463;SDS011;32161;48.148;-1.554;2024-01-10T11:08:34;43.17;;;22.85;;
46463;SDS011;32161;48.148;-1.554;2024-01-10T11:11:07;41.42;;;22.60;;
46463;SDS011;32161;48.148;-1.554;2024-01-10T11:13:58;40.63;;;23.23;;
46463;SDS011;32161;48.148;-1.554;2024-01-10T11:16:52;40.67;;;23.20;;
46463;SDS011;32161;48.148;-1.554;2024-01-10T11:20:01;41.35;;;22.67;;
46463;SDS011;32161;48.148;-1.554;2024-01-10T11:26:02;42.28;;;23.15;;
46463;SDS011;32161;48.148;-1.554;2024-01-10T11:28:30;44.55;;;24.13;;
46463;SDS011;32161;48.148;-1.554;2024-01-10T11:30:58;41.92;;;21.98;;
46463;SDS011;32161;48.148;-1.554;2024-01-10T11:33:31;43.00;;;22.92;;
46463;SDS011;32161;48.148;-1.554;2024-01-10T11:38:54;41.88;;;23.13;;
46463;SDS011;32161;48.148;-1.554;2024-01-10T11:41:27;39.35;;;23.02;;
46463;SDS011;32161;48.148;-1.554;2024-01-10T11:47:15;42.00;;;21.70;;
46463;SDS011;32161;48.148;-1.554;2024-01-10T11:49:57;42.03;;;22.92;;
46463;SDS011;32161;48.148;-1.554;2024-01-10T11:52:31;41.83;;;21.52;;
46463;SDS011;32161;48.148;-1.554;2024-01-10T11:55:00;40.47;;;23.85;;
46463;SDS011;32161;48.148;-1.554;2024-01-10T11:57:30;44.65;;;24.05;;
46463;SDS011;32161;48.148;-1.554;2024-01-10T11:59:58;40.65;;;23.55;;
46463;SDS011;32161;48.148;-1.554;2024-01-10T12:02:26;44.17;;;22.65;;
46463;SDS011;32161;48.148;-1.554;2024-01-10T12:04:57;41.35;;;23.33;;
46463;SDS011;32161;48.148;-1.554;2024-01-10T12:07:24;42.10;;;21.75;;
46463;SDS011;32161;48.148;-1.554;2024-01-10T12:09:52;40.03;;;22.75;;
46463;SDS011;32161;48.148;-1.554;2024-01-10T12:12:21;40.90;;;23.48;;
46463;SDS011;32161;48.148;-1.554;2024-01-10T12:14:48;38.42;;;21.80;;
46463;SDS011;32161;48.148;-1.554;2024-01-10T12:17:17;43.35;;;22.95;;
46463;SDS011;32161;48.148;-1.554;2024-01-10T12:19:45;44.38;;;22.58;;
46463;SDS011;32161;48.148;-1.554;2024-01-10T12:22:14;44.45;;;23.48;;
46463;SDS011;32161;48.148;-1.554;2024-01-10T12:24:44;45.78;;;23.45;;
46463;SDS011;32161;48.148;-1.554;2024-01-10T12:27:15;43.97;;;24.90;;
46463;SDS011;32161;48.148;-1.554;2024-01-10T12:29:47;41.65;;;23.17;;
46463;SDS011;32161;48.148;-1.554;2024-01-10T12:34:45;46.97;;;23.15;;
46463;SDS011;32161;48.148;-1.554;2024-01-10T12:37:12;42.88;;;22.98;;
46463;SDS011;32161;48.148;-1.554;2024-01-10T12:39:41;42.60;;;23.08;;
46463;SDS011;32161;48.148;-1.554;2024-01-10T12:42:09;41.08;;;22.98;;
46463;SDS011;32161;48.148;-1.554;2024-01-10T12:44:37;39.78;;;23.60;;
46463;SDS011;32161;48.148;-1.554;2024-01-10T12:47:17;46.45;;;23.70;;
46463;SDS011;32161;48.148;-1.554;2024-01-10T12:49:46;41.78;;;22.98;;
46463;SDS011;32161;48.148;-1.554;2024-01-10T12:52:15;43.45;;;23.77;;
46463;SDS011;32161;48.148;-1.554;2024-01-10T12:54:44;47.08;;;25.42;;
46463;SDS011;32161;48.148;-1.554;2024-01-10T12:57:12;47.28;;;24.73;;
46463;SDS011;32161;48.148;-1.554;2024-01-10T12:59:39;47.08;;;25.63;;
46463;SDS011;32161;48.148;-1.554;2024-01-10T13:02:07;50.28;;;26.65;;
46463;SDS011;32161;48.148;-1.554;2024-01-10T13:04:35;46.65;;;25.67;;
46463;SDS011;32161;48.148;-1.554;2024-01-10T13:07:02;49.25;;;25.38;;
46463;SDS011;32161;48.148;-1.554;2024-01-10T13:09:32;47.83;;;25.52;;
46463;SDS011;32161;48.148;-1.554;2024-01-10T13:11:59;49.42;;;24.73;;
46463;SDS011;32161;48.148;-1.554;2024-01-10T13:14:27;47.63;;;25.08;;
46463;SDS011;32161;48.148;-1.554;2024-01-10T13:16:56;46.17;;;25.63;;
46463;SDS011;32161;48.148;-1.554;2024-01-10T13:19:24;49.53;;;27.48;;
46463;SDS011;32161;48.148;-1.554;2024-01-10T13:21:51;46.90;;;24.90;;
46463;SDS011;32161;48.148;-1.554;2024-01-10T13:24:20;47.33;;;25.35;;
46463;SDS011;32161;48.148;-1.554;2024-01-10T13:26:49;43.22;;;24.02;;
46463;SDS011;32161;48.148;-1.554;2024-01-10T13:29:16;47.30;;;25.20;;
46463;SDS011;32161;48.148;-1.554;2024-01-10T13:31:44;44.47;;;23.80;;
46463;SDS011;32161;48.148;-1.554;2024-01-10T13:34:12;47.50;;;24.02;;
46463;SDS011;32161;48.148;-1.554;2024-01-10T13:36:40;45.97;;;24.40;;
46463;SDS011;32161;48.148;-1.554;2024-01-10T13:39:08;42.97;;;24.50;;
46463;SDS011;32161;48.148;-1.554;2024-01-10T13:41:40;49.25;;;25.42;;
46463;SDS011;32161;48.148;-1.554;2024-01-10T13:44:09;49.90;;;25.80;;
46463;SDS011;32161;48.148;-1.554;2024-01-10T13:46:37;47.90;;;24.75;;
46463;SDS011;32161;48.148;-1.554;2024-01-10T13:49:07;52.50;;;24.90;;
46463;SDS011;32161;48.148;-1.554;2024-01-10T13:51:34;40.03;;;24.25;;
46463;SDS011;32161;48.148;-1.554;2024-01-10T13:54:02;45.10;;;24.98;;
46463;SDS011;32161;48.148;-1.554;2024-01-10T13:56:30;47.17;;;25.63;;
46463;SDS011;32161;48.148;-1.554;2024-01-10T13:58:59;46.78;;;25.35;;
46463;SDS011;32161;48.148;-1.554;2024-01-10T14:01:28;43.58;;;24.40;;
46463;SDS011;32161;48.148;-1.554;2024-01-10T14:03:56;45.63;;;24.48;;
46463;SDS011;32161;48.148;-1.554;2024-01-10T14:06:23;48.55;;;24.33;;
46463;SDS011;32161;48.148;-1.554;2024-01-10T14:08:51;40.40;;;23.85;;
46463;SDS011;32161;48.148;-1.554;2024-01-10T14:11:19;43.05;;;24.70;;
46463;SDS011;32161;48.148;-1.554;2024-01-10T14:13:46;42.05;;;24.52;;
46463;SDS011;32161;48.148;-1.554;2024-01-10T14:16:14;39.63;;;23.00;;
46463;SDS011;32161;48.148;-1.554;2024-01-10T14:18:43;41.55;;;22.42;;
46463;SDS011;32161;48.148;-1.554;2024-01-10T14:21:12;41.33;;;22.90;;
46463;SDS011;32161;48.148;-1.554;2024-01-10T14:23:39;38.83;;;21.60;;
46463;SDS011;32161;48.148;-1.554;2024-01-10T14:26:07;39.50;;;22.85;;
46463;SDS011;32161;48.148;-1.554;2024-01-10T14:28:35;42.38;;;22.00;;